Mount Pleasant, SC (29466)

8:50 PM EST on February 06, 2016 (GMT -0500)
APRSWXNET | | Change Station
CLOSE
Current Station
Personal Weather Station
Location: Mount Pleasant, SC
Elevation: 49 ft
Nearby Weather Stations
Active Advisory: Wind Advisory

Elev 49 ft 32.81 °N, 79.84 °W | Updated 32 minutes ago

Mostly Cloudy
Mostly Cloudy
44 °F
Feels Like 41 °F
N
6
Wind Variable Wind from NNW
Gusts 0.0 mph

Today
High -- | Low -- °F
--% Chance of Precip.
Yesterday
High -- | Low -- °F
Precip. -- in
Pressure 30.19 in
Visibility 3.0 miles
Clouds Few 100 ft
Few 1800 ft
Overcast 2400 ft
Windchill 41 °F
Dew Point 44 °F
Humidity 100%
Rainfall in
Snow Depth Not available.
7:11 AM 5:56 PM
Waning Crescent, 3% visible
METAR KJZI 070135Z AUTO 36012KT 3SM RA FEW001 FEW018 OVC024 06/04 A3019 RMK AO2
Pressure 30.19 in
Visibility 3.0 miles
Clouds Few 100 ft
Few 1800 ft
Overcast 2400 ft
Windchill 41 °F
Dew Point 44 °F
Humidity 100%
Rainfall in
Snow Depth Not available.
7:11 AM 5:56 PM
Waning Crescent, 3% visible
METAR KJZI 070135Z AUTO 36012KT 3SM RA FEW001 FEW018 OVC024 06/04 A3019 RMK AO2

10-Day Weather Forecast

Almanac

Astronomy

Feb. 06, 2016 Rise Set
Actual Time
Civil Twilight
Nautical Twilight
Astronomical Twilight
Moon
Length of Visible Light
Length of Day
Tomorrow will be .
, % of the Moon is Illuminated

Today's Extremes

State Highs State Lows

Community

WunderPhotos

Upload Photos

1,891,123 photos uploaded!

WunderBlog® & News

Nearby

Air Quality

  Air Quality AQ Index Pollutant
Not available.

Snow Depth

Station Depth Elevation

Earthquake Activity

City Distance Mag. Time & Date
Minimum magnitude displayed is 2.5.

Coastal Water Temperatures

Place Temperature

Stations

Nearby Weather Stations

Station Location Temp. Windchill Dew Point Humidity Wind Precip. Elev Updated Type
                   

Watches & Warnings

Wind Advisory
Issued: 7:52 PM EST Feb. 6, 2016 – National Weather Service

... Wind Advisory remains in effect from 10 am to 7 PM EST
Sunday...

* locations... Charleston County... especially along and east of
U.S. 17.

* Winds... north to northwest 20-30 mph with gusts to 40 mph.

* Impacts... strong winds will make travel difficult... especially
for high profile vehicles and on elevated surfaces such as
bridges and overpasses. Light weight objects such as trash
cans and lawn furniture will also be blown around.

Precautionary/preparedness actions...

Be prepared for strong winds. Extra caution should be taken while
driving high profile vehicles and on bridges and overpasses.
Light weight objects such as trash cans and lawn furniture should
be secured.